Terminal Aerodrome Forecast
Issued by NWS Cleveland, OH

Home | Current Version | Previous Version | Text Only | Print | Product List | Glossary On
Versions: 1 2 3 4 5 6 7 8 9 10 11 12 13 14 15 16 17 18 19 20 21 22
000
FTUS41 KCLE 041100
TAFCAK
TAF
KCAK 041140Z 0412/0512 29008KT P6SM OVC015
     FM042200 32008KT P6SM OVC010 PROB30 0423/0503 3SM -SN
     FM050600 34006KT P6SM OVC022=

USA.gov is the U.S. government's official web portal to all federal, state and local government web resources and services.